sensor_id;sensor_type;location;lat;lon;timestamp;P1;durP1;ratioP1;P2;durP2;ratioP2
23565;SDS011;22140;48.988;8.544;2022-12-18T00:02:45;81.85;;;24.75;;
23565;SDS011;22140;48.988;8.544;2022-12-18T00:07:46;89.27;;;27.70;;
23565;SDS011;22140;48.988;8.544;2022-12-18T00:12:48;73.03;;;25.17;;
23565;SDS011;22140;48.988;8.544;2022-12-18T00:17:49;78.78;;;25.67;;
23565;SDS011;22140;48.988;8.544;2022-12-18T00:22:51;80.80;;;24.55;;
23565;SDS011;22140;48.988;8.544;2022-12-18T00:27:52;80.10;;;24.83;;
23565;SDS011;22140;48.988;8.544;2022-12-18T00:32:57;77.13;;;24.30;;
23565;SDS011;22140;48.988;8.544;2022-12-18T00:37:58;76.15;;;24.13;;
23565;SDS011;22140;48.988;8.544;2022-12-18T00:42:59;62.97;;;22.83;;
23565;SDS011;22140;48.988;8.544;2022-12-18T00:48:00;64.93;;;20.63;;
23565;SDS011;22140;48.988;8.544;2022-12-18T00:53:02;64.43;;;20.40;;
23565;SDS011;22140;48.988;8.544;2022-12-18T00:58:03;59.07;;;21.07;;
23565;SDS011;22140;48.988;8.544;2022-12-18T01:03:05;64.40;;;20.13;;
23565;SDS011;22140;48.988;8.544;2022-12-18T01:08:06;65.38;;;20.55;;
23565;SDS011;22140;48.988;8.544;2022-12-18T01:13:07;59.70;;;19.77;;
23565;SDS011;22140;48.988;8.544;2022-12-18T01:18:10;56.58;;;18.58;;
23565;SDS011;22140;48.988;8.544;2022-12-18T01:23:11;54.80;;;17.90;;
23565;SDS011;22140;48.988;8.544;2022-12-18T01:28:12;56.58;;;17.73;;
23565;SDS011;22140;48.988;8.544;2022-12-18T01:33:13;46.03;;;17.55;;
23565;SDS011;22140;48.988;8.544;2022-12-18T01:38:15;52.22;;;15.68;;
23565;SDS011;22140;48.988;8.544;2022-12-18T01:43:16;50.50;;;17.60;;
23565;SDS011;22140;48.988;8.544;2022-12-18T01:48:17;46.33;;;16.23;;
23565;SDS011;22140;48.988;8.544;2022-12-18T01:53:19;54.38;;;17.98;;
23565;SDS011;22140;48.988;8.544;2022-12-18T01:58:23;53.25;;;17.35;;
23565;SDS011;22140;48.988;8.544;2022-12-18T02:03:26;48.42;;;16.75;;
23565;SDS011;22140;48.988;8.544;2022-12-18T02:13:44;47.23;;;16.30;;
23565;SDS011;22140;48.988;8.544;2022-12-18T02:18:50;42.92;;;15.00;;
23565;SDS011;22140;48.988;8.544;2022-12-18T02:29:04;48.05;;;15.02;;
23565;SDS011;22140;48.988;8.544;2022-12-18T02:34:07;46.13;;;16.33;;
23565;SDS011;22140;48.988;8.544;2022-12-18T02:39:10;43.20;;;15.63;;
23565;SDS011;22140;48.988;8.544;2022-12-18T02:44:12;45.30;;;15.63;;
23565;SDS011;22140;48.988;8.544;2022-12-18T02:49:18;44.97;;;15.63;;
23565;SDS011;22140;48.988;8.544;2022-12-18T02:59:34;45.90;;;15.35;;
23565;SDS011;22140;48.988;8.544;2022-12-18T03:04:45;44.93;;;15.47;;
23565;SDS011;22140;48.988;8.544;2022-12-18T03:09:49;44.22;;;14.70;;
23565;SDS011;22140;48.988;8.544;2022-12-18T03:15:04;41.20;;;15.02;;
23565;SDS011;22140;48.988;8.544;2022-12-18T03:20:15;43.92;;;15.20;;
23565;SDS011;22140;48.988;8.544;2022-12-18T03:25:18;42.63;;;15.82;;
23565;SDS011;22140;48.988;8.544;2022-12-18T03:30:20;44.87;;;15.03;;
23565;SDS011;22140;48.988;8.544;2022-12-18T03:35:23;44.88;;;15.30;;
23565;SDS011;22140;48.988;8.544;2022-12-18T03:40:27;45.10;;;15.02;;
23565;SDS011;22140;48.988;8.544;2022-12-18T03:45:32;38.97;;;13.85;;
23565;SDS011;22140;48.988;8.544;2022-12-18T03:55:36;43.43;;;14.93;;
23565;SDS011;22140;48.988;8.544;2022-12-18T04:00:38;48.10;;;16.13;;
23565;SDS011;22140;48.988;8.544;2022-12-18T04:10:50;41.25;;;13.75;;
23565;SDS011;22140;48.988;8.544;2022-12-18T04:15:51;41.78;;;14.18;;
23565;SDS011;22140;48.988;8.544;2022-12-18T04:20:52;45.07;;;15.97;;
23565;SDS011;22140;48.988;8.544;2022-12-18T04:25:54;42.33;;;14.88;;
23565;SDS011;22140;48.988;8.544;2022-12-18T04:30:55;38.92;;;14.18;;
23565;SDS011;22140;48.988;8.544;2022-12-18T04:35:57;41.92;;;13.65;;
23565;SDS011;22140;48.988;8.544;2022-12-18T04:40:59;38.67;;;13.90;;
23565;SDS011;22140;48.988;8.544;2022-12-18T04:46:09;42.10;;;14.03;;
23565;SDS011;22140;48.988;8.544;2022-12-18T04:51:10;45.00;;;15.05;;
23565;SDS011;22140;48.988;8.544;2022-12-18T04:56:12;40.15;;;14.02;;
23565;SDS011;22140;48.988;8.544;2022-12-18T05:01:14;43.50;;;15.35;;
23565;SDS011;22140;48.988;8.544;2022-12-18T05:06:16;46.13;;;14.27;;
23565;SDS011;22140;48.988;8.544;2022-12-18T05:11:17;38.83;;;13.90;;
23565;SDS011;22140;48.988;8.544;2022-12-18T05:16:19;43.03;;;14.05;;
23565;SDS011;22140;48.988;8.544;2022-12-18T05:21:20;40.67;;;14.10;;
23565;SDS011;22140;48.988;8.544;2022-12-18T05:26:21;43.45;;;14.48;;
23565;SDS011;22140;48.988;8.544;2022-12-18T05:31:23;41.58;;;14.93;;
23565;SDS011;22140;48.988;8.544;2022-12-18T05:36:24;40.43;;;14.37;;
23565;SDS011;22140;48.988;8.544;2022-12-18T05:41:26;42.30;;;14.38;;
23565;SDS011;22140;48.988;8.544;2022-12-18T05:46:27;43.03;;;14.82;;
23565;SDS011;22140;48.988;8.544;2022-12-18T05:51:28;46.35;;;13.85;;
23565;SDS011;22140;48.988;8.544;2022-12-18T05:56:30;42.33;;;14.45;;
23565;SDS011;22140;48.988;8.544;2022-12-18T06:01:31;40.07;;;14.33;;
23565;SDS011;22140;48.988;8.544;2022-12-18T06:06:32;46.00;;;13.73;;
23565;SDS011;22140;48.988;8.544;2022-12-18T06:11:34;39.10;;;12.77;;
23565;SDS011;22140;48.988;8.544;2022-12-18T06:16:35;41.72;;;13.05;;
23565;SDS011;22140;48.988;8.544;2022-12-18T06:21:37;39.85;;;13.65;;
23565;SDS011;22140;48.988;8.544;2022-12-18T06:26:38;40.47;;;13.37;;
23565;SDS011;22140;48.988;8.544;2022-12-18T06:31:40;40.00;;;12.10;;
23565;SDS011;22140;48.988;8.544;2022-12-18T06:36:41;36.88;;;13.43;;
23565;SDS011;22140;48.988;8.544;2022-12-18T06:41:42;40.58;;;13.05;;
23565;SDS011;22140;48.988;8.544;2022-12-18T06:46:44;43.50;;;12.82;;
23565;SDS011;22140;48.988;8.544;2022-12-18T06:51:45;47.33;;;13.37;;
23565;SDS011;22140;48.988;8.544;2022-12-18T06:56:47;51.22;;;14.43;;
23565;SDS011;22140;48.988;8.544;2022-12-18T07:01:48;50.20;;;16.48;;
23565;SDS011;22140;48.988;8.544;2022-12-18T07:06:50;59.28;;;18.63;;
23565;SDS011;22140;48.988;8.544;2022-12-18T07:11:51;46.72;;;15.10;;
23565;SDS011;22140;48.988;8.544;2022-12-18T07:16:53;53.03;;;16.37;;
23565;SDS011;22140;48.988;8.544;2022-12-18T07:21:54;55.83;;;17.88;;
23565;SDS011;22140;48.988;8.544;2022-12-18T07:26:56;42.88;;;14.63;;
23565;SDS011;22140;48.988;8.544;2022-12-18T07:31:57;58.85;;;17.70;;
23565;SDS011;22140;48.988;8.544;2022-12-18T07:36:58;48.55;;;14.13;;
23565;SDS011;22140;48.988;8.544;2022-12-18T07:42:00;45.50;;;14.27;;
23565;SDS011;22140;48.988;8.544;2022-12-18T07:47:21;43.60;;;15.07;;
23565;SDS011;22140;48.988;8.544;2022-12-18T07:52:22;49.75;;;14.43;;
23565;SDS011;22140;48.988;8.544;2022-12-18T07:57:26;47.08;;;13.98;;
23565;SDS011;22140;48.988;8.544;2022-12-18T08:02:47;57.92;;;14.93;;
23565;SDS011;22140;48.988;8.544;2022-12-18T08:07:49;47.47;;;15.03;;
23565;SDS011;22140;48.988;8.544;2022-12-18T08:12:50;44.72;;;14.40;;
23565;SDS011;22140;48.988;8.544;2022-12-18T08:17:52;45.58;;;13.38;;
23565;SDS011;22140;48.988;8.544;2022-12-18T08:22:53;56.15;;;15.05;;
23565;SDS011;22140;48.988;8.544;2022-12-18T08:27:55;51.97;;;14.77;;
23565;SDS011;22140;48.988;8.544;2022-12-18T08:32:57;65.00;;;17.87;;
23565;SDS011;22140;48.988;8.544;2022-12-18T08:37:59;62.78;;;17.25;;
23565;SDS011;22140;48.988;8.544;2022-12-18T08:43:00;48.15;;;14.65;;
23565;SDS011;22140;48.988;8.544;2022-12-18T08:48:20;49.20;;;14.30;;
23565;SDS011;22140;48.988;8.544;2022-12-18T08:53:23;55.95;;;16.27;;
23565;SDS011;22140;48.988;8.544;2022-12-18T08:58:25;59.00;;;18.07;;
23565;SDS011;22140;48.988;8.544;2022-12-18T09:03:26;47.95;;;15.52;;
23565;SDS011;22140;48.988;8.544;2022-12-18T09:08:27;46.53;;;15.65;;
23565;SDS011;22140;48.988;8.544;2022-12-18T09:13:29;48.80;;;16.08;;
23565;SDS011;22140;48.988;8.544;2022-12-18T09:18:30;60.47;;;21.88;;
23565;SDS011;22140;48.988;8.544;2022-12-18T09:23:31;49.43;;;17.67;;
23565;SDS011;22140;48.988;8.544;2022-12-18T09:28:33;50.45;;;15.95;;
23565;SDS011;22140;48.988;8.544;2022-12-18T09:33:35;47.50;;;15.95;;
23565;SDS011;22140;48.988;8.544;2022-12-18T09:38:36;58.20;;;16.88;;
23565;SDS011;22140;48.988;8.544;2022-12-18T09:43:45;52.47;;;16.27;;
23565;SDS011;22140;48.988;8.544;2022-12-18T09:48:49;62.03;;;16.80;;
23565;SDS011;22140;48.988;8.544;2022-12-18T09:54:01;56.78;;;18.48;;
23565;SDS011;22140;48.988;8.544;2022-12-18T09:59:04;58.67;;;19.83;;
23565;SDS011;22140;48.988;8.544;2022-12-18T10:04:08;61.72;;;18.38;;
23565;SDS011;22140;48.988;8.544;2022-12-18T10:29:44;57.22;;;16.38;;
23565;SDS011;22140;48.988;8.544;2022-12-18T10:34:50;50.78;;;17.98;;
23565;SDS011;22140;48.988;8.544;2022-12-18T10:45:09;54.47;;;17.48;;
23565;SDS011;22140;48.988;8.544;2022-12-18T10:55:38;46.45;;;15.00;;
23565;SDS011;22140;48.988;8.544;2022-12-18T11:00:40;46.97;;;16.60;;
23565;SDS011;22140;48.988;8.544;2022-12-18T11:05:42;47.53;;;15.80;;
23565;SDS011;22140;48.988;8.544;2022-12-18T11:10:44;51.03;;;16.90;;
23565;SDS011;22140;48.988;8.544;2022-12-18T11:15:48;51.75;;;17.20;;
23565;SDS011;22140;48.988;8.544;2022-12-18T11:20:50;48.95;;;16.63;;
23565;SDS011;22140;48.988;8.544;2022-12-18T11:25:59;46.35;;;16.70;;
23565;SDS011;22140;48.988;8.544;2022-12-18T11:31:46;55.17;;;17.97;;
23565;SDS011;22140;48.988;8.544;2022-12-18T11:36:22;48.47;;;16.00;;
23565;SDS011;22140;48.988;8.544;2022-12-18T11:41:34;53.20;;;17.35;;
23565;SDS011;22140;48.988;8.544;2022-12-18T11:47:01;43.05;;;15.82;;
23565;SDS011;22140;48.988;8.544;2022-12-18T11:52:08;54.25;;;17.27;;
23565;SDS011;22140;48.988;8.544;2022-12-18T12:38:51;62.65;;;20.88;;
23565;SDS011;22140;48.988;8.544;2022-12-18T12:43:56;53.45;;;18.80;;
23565;SDS011;22140;48.988;8.544;2022-12-18T12:48:59;49.97;;;19.13;;
23565;SDS011;22140;48.988;8.544;2022-12-18T12:54:03;55.33;;;18.60;;
23565;SDS011;22140;48.988;8.544;2022-12-18T13:09:19;57.95;;;20.38;;
23565;SDS011;22140;48.988;8.544;2022-12-18T13:14:26;56.23;;;18.03;;
23565;SDS011;22140;48.988;8.544;2022-12-18T13:19:27;58.35;;;19.02;;
23565;SDS011;22140;48.988;8.544;2022-12-18T13:24:30;52.40;;;18.30;;
23565;SDS011;22140;48.988;8.544;2022-12-18T13:29:44;58.25;;;18.58;;
23565;SDS011;22140;48.988;8.544;2022-12-18T13:34:46;55.38;;;19.60;;
23565;SDS011;22140;48.988;8.544;2022-12-18T13:39:48;53.07;;;19.07;;
23565;SDS011;22140;48.988;8.544;2022-12-18T13:44:49;55.97;;;19.63;;
23565;SDS011;22140;48.988;8.544;2022-12-18T13:49:51;51.92;;;20.58;;
23565;SDS011;22140;48.988;8.544;2022-12-18T13:54:55;54.63;;;20.00;;
23565;SDS011;22140;48.988;8.544;2022-12-18T13:59:57;66.72;;;23.90;;
23565;SDS011;22140;48.988;8.544;2022-12-18T14:04:58;61.63;;;23.63;;
23565;SDS011;22140;48.988;8.544;2022-12-18T14:09:59;66.35;;;22.30;;
23565;SDS011;22140;48.988;8.544;2022-12-18T14:20:31;56.95;;;20.20;;
23565;SDS011;22140;48.988;8.544;2022-12-18T14:25:32;59.08;;;21.10;;
23565;SDS011;22140;48.988;8.544;2022-12-18T14:30:35;76.73;;;26.03;;
23565;SDS011;22140;48.988;8.544;2022-12-18T14:35:38;66.13;;;23.55;;
23565;SDS011;22140;48.988;8.544;2022-12-18T14:40:39;61.20;;;21.73;;
23565;SDS011;22140;48.988;8.544;2022-12-18T14:45:42;52.83;;;19.13;;
23565;SDS011;22140;48.988;8.544;2022-12-18T14:50:45;56.20;;;19.92;;
23565;SDS011;22140;48.988;8.544;2022-12-18T14:55:54;68.60;;;23.40;;
23565;SDS011;22140;48.988;8.544;2022-12-18T15:00:56;60.13;;;21.08;;
23565;SDS011;22140;48.988;8.544;2022-12-18T15:06:14;66.07;;;22.63;;
23565;SDS011;22140;48.988;8.544;2022-12-18T15:11:26;56.08;;;22.00;;
23565;SDS011;22140;48.988;8.544;2022-12-18T15:16:28;64.63;;;22.75;;
23565;SDS011;22140;48.988;8.544;2022-12-18T15:21:29;63.70;;;23.77;;
23565;SDS011;22140;48.988;8.544;2022-12-18T15:26:32;58.30;;;22.83;;
23565;SDS011;22140;48.988;8.544;2022-12-18T15:31:37;68.60;;;25.00;;
23565;SDS011;22140;48.988;8.544;2022-12-18T15:36:38;72.90;;;25.08;;
23565;SDS011;22140;48.988;8.544;2022-12-18T15:41:40;66.22;;;23.65;;
23565;SDS011;22140;48.988;8.544;2022-12-18T15:47:01;62.57;;;24.63;;
23565;SDS011;22140;48.988;8.544;2022-12-18T15:52:03;62.38;;;23.23;;
23565;SDS011;22140;48.988;8.544;2022-12-18T15:57:04;63.03;;;23.75;;
23565;SDS011;22140;48.988;8.544;2022-12-18T16:02:24;58.42;;;21.95;;
23565;SDS011;22140;48.988;8.544;2022-12-18T16:07:25;62.13;;;22.83;;
23565;SDS011;22140;48.988;8.544;2022-12-18T16:12:30;86.50;;;27.33;;
23565;SDS011;22140;48.988;8.544;2022-12-18T16:17:32;83.88;;;28.35;;
23565;SDS011;22140;48.988;8.544;2022-12-18T16:22:33;81.70;;;28.05;;
23565;SDS011;22140;48.988;8.544;2022-12-18T16:27:35;83.13;;;25.77;;
23565;SDS011;22140;48.988;8.544;2022-12-18T16:32:36;70.22;;;26.08;;
23565;SDS011;22140;48.988;8.544;2022-12-18T16:37:38;58.93;;;22.67;;
23565;SDS011;22140;48.988;8.544;2022-12-18T16:42:39;60.75;;;22.85;;
23565;SDS011;22140;48.988;8.544;2022-12-18T16:47:41;61.97;;;22.45;;
23565;SDS011;22140;48.988;8.544;2022-12-18T16:52:42;68.10;;;24.40;;
23565;SDS011;22140;48.988;8.544;2022-12-18T16:57:44;63.15;;;22.45;;
23565;SDS011;22140;48.988;8.544;2022-12-18T17:02:45;56.77;;;22.13;;
23565;SDS011;22140;48.988;8.544;2022-12-18T17:07:47;66.45;;;23.60;;
23565;SDS011;22140;48.988;8.544;2022-12-18T17:12:49;70.13;;;24.25;;
23565;SDS011;22140;48.988;8.544;2022-12-18T17:17:50;67.30;;;24.38;;
23565;SDS011;22140;48.988;8.544;2022-12-18T17:22:52;66.05;;;25.35;;
23565;SDS011;22140;48.988;8.544;2022-12-18T17:27:53;65.77;;;23.17;;
23565;SDS011;22140;48.988;8.544;2022-12-18T17:32:54;75.50;;;25.98;;
23565;SDS011;22140;48.988;8.544;2022-12-18T17:37:56;61.50;;;23.55;;
23565;SDS011;22140;48.988;8.544;2022-12-18T17:42:57;69.25;;;25.83;;
23565;SDS011;22140;48.988;8.544;2022-12-18T17:47:59;65.32;;;25.20;;
23565;SDS011;22140;48.988;8.544;2022-12-18T17:53:01;84.50;;;27.53;;
23565;SDS011;22140;48.988;8.544;2022-12-18T17:58:03;64.25;;;23.70;;
23565;SDS011;22140;48.988;8.544;2022-12-18T18:03:04;60.47;;;25.10;;
23565;SDS011;22140;48.988;8.544;2022-12-18T18:08:05;68.25;;;23.85;;
23565;SDS011;22140;48.988;8.544;2022-12-18T18:13:15;65.32;;;22.85;;
23565;SDS011;22140;48.988;8.544;2022-12-18T18:18:40;65.30;;;21.90;;
23565;SDS011;22140;48.988;8.544;2022-12-18T18:23:42;64.15;;;23.92;;
23565;SDS011;22140;48.988;8.544;2022-12-18T18:28:46;65.78;;;23.52;;
23565;SDS011;22140;48.988;8.544;2022-12-18T18:33:47;62.90;;;24.02;;
23565;SDS011;22140;48.988;8.544;2022-12-18T18:38:49;75.15;;;27.23;;
23565;SDS011;22140;48.988;8.544;2022-12-18T18:43:54;76.23;;;25.93;;
23565;SDS011;22140;48.988;8.544;2022-12-18T18:48:56;90.28;;;29.15;;
23565;SDS011;22140;48.988;8.544;2022-12-18T18:53:57;98.13;;;30.08;;
23565;SDS011;22140;48.988;8.544;2022-12-18T18:59:00;80.35;;;27.65;;
23565;SDS011;22140;48.988;8.544;2022-12-18T19:04:02;75.60;;;27.00;;
23565;SDS011;22140;48.988;8.544;2022-12-18T19:09:03;65.23;;;22.33;;
23565;SDS011;22140;48.988;8.544;2022-12-18T19:14:07;63.83;;;22.23;;
23565;SDS011;22140;48.988;8.544;2022-12-18T19:19:08;66.57;;;22.30;;
23565;SDS011;22140;48.988;8.544;2022-12-18T19:24:10;63.58;;;22.25;;
23565;SDS011;22140;48.988;8.544;2022-12-18T19:29:11;67.28;;;23.98;;
23565;SDS011;22140;48.988;8.544;2022-12-18T19:34:14;67.57;;;22.87;;
23565;SDS011;22140;48.988;8.544;2022-12-18T19:39:16;65.50;;;22.92;;
23565;SDS011;22140;48.988;8.544;2022-12-18T19:44:19;65.70;;;23.45;;
23565;SDS011;22140;48.988;8.544;2022-12-18T19:49:20;70.65;;;24.63;;
23565;SDS011;22140;48.988;8.544;2022-12-18T19:54:22;66.10;;;23.40;;
23565;SDS011;22140;48.988;8.544;2022-12-18T19:59:25;62.67;;;22.90;;
23565;SDS011;22140;48.988;8.544;2022-12-18T20:04:27;57.55;;;22.60;;
23565;SDS011;22140;48.988;8.544;2022-12-18T20:09:28;81.18;;;25.70;;
23565;SDS011;22140;48.988;8.544;2022-12-18T20:14:29;68.75;;;24.52;;
23565;SDS011;22140;48.988;8.544;2022-12-18T20:19:31;76.63;;;26.38;;
23565;SDS011;22140;48.988;8.544;2022-12-18T20:24:34;70.00;;;24.50;;
23565;SDS011;22140;48.988;8.544;2022-12-18T20:29:35;63.22;;;23.33;;
23565;SDS011;22140;48.988;8.544;2022-12-18T20:34:36;59.50;;;22.20;;
23565;SDS011;22140;48.988;8.544;2022-12-18T20:39:38;56.80;;;21.92;;
23565;SDS011;22140;48.988;8.544;2022-12-18T20:44:40;63.72;;;23.20;;
23565;SDS011;22140;48.988;8.544;2022-12-18T20:49:42;72.77;;;26.47;;
23565;SDS011;22140;48.988;8.544;2022-12-18T20:54:45;67.85;;;26.80;;
23565;SDS011;22140;48.988;8.544;2022-12-18T20:59:47;69.03;;;25.50;;
23565;SDS011;22140;48.988;8.544;2022-12-18T21:04:48;63.70;;;23.63;;
23565;SDS011;22140;48.988;8.544;2022-12-18T21:09:50;60.85;;;22.90;;
23565;SDS011;22140;48.988;8.544;2022-12-18T21:14:51;64.73;;;24.83;;
23565;SDS011;22140;48.988;8.544;2022-12-18T21:19:52;74.75;;;29.88;;
23565;SDS011;22140;48.988;8.544;2022-12-18T21:24:55;71.53;;;26.45;;
23565;SDS011;22140;48.988;8.544;2022-12-18T21:29:56;86.55;;;30.02;;
23565;SDS011;22140;48.988;8.544;2022-12-18T21:34:57;66.82;;;24.52;;
23565;SDS011;22140;48.988;8.544;2022-12-18T21:39:59;64.97;;;24.10;;
23565;SDS011;22140;48.988;8.544;2022-12-18T21:45:00;61.42;;;22.67;;
23565;SDS011;22140;48.988;8.544;2022-12-18T21:50:01;68.85;;;24.25;;
23565;SDS011;22140;48.988;8.544;2022-12-18T21:55:03;68.07;;;25.88;;
23565;SDS011;22140;48.988;8.544;2022-12-18T22:00:10;68.20;;;24.50;;
23565;SDS011;22140;48.988;8.544;2022-12-18T22:05:19;67.57;;;25.37;;
23565;SDS011;22140;48.988;8.544;2022-12-18T22:10:20;65.47;;;24.75;;
23565;SDS011;22140;48.988;8.544;2022-12-18T22:15:22;68.43;;;25.23;;
23565;SDS011;22140;48.988;8.544;2022-12-18T22:20:23;61.47;;;22.50;;
23565;SDS011;22140;48.988;8.544;2022-12-18T22:25:26;64.13;;;23.25;;
23565;SDS011;22140;48.988;8.544;2022-12-18T22:30:28;61.53;;;22.37;;
23565;SDS011;22140;48.988;8.544;2022-12-18T22:35:29;62.58;;;24.27;;
23565;SDS011;22140;48.988;8.544;2022-12-18T22:40:30;53.85;;;21.55;;
23565;SDS011;22140;48.988;8.544;2022-12-18T22:45:32;60.45;;;22.75;;
23565;SDS011;22140;48.988;8.544;2022-12-18T22:50:38;57.42;;;20.17;;
23565;SDS011;22140;48.988;8.544;2022-12-18T22:55:39;59.57;;;23.43;;
23565;SDS011;22140;48.988;8.544;2022-12-18T23:00:41;65.50;;;23.42;;
23565;SDS011;22140;48.988;8.544;2022-12-18T23:05:42;65.90;;;23.77;;
23565;SDS011;22140;48.988;8.544;2022-12-18T23:10:43;64.45;;;23.13;;
23565;SDS011;22140;48.988;8.544;2022-12-18T23:15:44;63.78;;;24.25;;
23565;SDS011;22140;48.988;8.544;2022-12-18T23:20:47;61.00;;;23.17;;
23565;SDS011;22140;48.988;8.544;2022-12-18T23:25:48;57.30;;;23.25;;
23565;SDS011;22140;48.988;8.544;2022-12-18T23:30:50;58.60;;;23.15;;
23565;SDS011;22140;48.988;8.544;2022-12-18T23:35:51;63.95;;;23.27;;
23565;SDS011;22140;48.988;8.544;2022-12-18T23:40:52;60.80;;;22.67;;
23565;SDS011;22140;48.988;8.544;2022-12-18T23:45:56;66.70;;;23.83;;
23565;SDS011;22140;48.988;8.544;2022-12-18T23:51:02;66.40;;;24.75;;
23565;SDS011;22140;48.988;8.544;2022-12-18T23:56:07;58.20;;;21.98;;
